Time,TemperatureF,DewpointF,PressureIn,WindDirection,WindDirectionDegrees,WindSpeedMPH,WindSpeedGustMPH,Humidity,HourlyPrecipIn,Conditions,Clouds,dailyrainin,SolarRadiationWatts/m^2,SoftwareType,DateUTC
2013-08-05 00:02:00,63.0,55.0,29.91,West,278,1.0,2.0,74,0.00,,,-99.99,0.000000,,2013-08-05 04:02:00,
2013-08-05 00:12:00,63.0,55.0,29.91,NNW,336,0.0,2.0,75,0.00,,,-99.99,0.000000,,2013-08-05 04:12:00,
2013-08-05 00:22:00,63.0,55.0,29.91,NNW,336,0.0,2.0,75,0.00,,,-99.99,0.000000,,2013-08-05 04:22:00,
2013-08-05 00:32:00,63.0,55.0,29.91,NNW,336,0.0,2.0,75,0.00,,,-99.99,0.000000,,2013-08-05 04:32:00,
2013-08-05 00:43:00,63.0,55.0,29.91,West,278,1.0,2.0,76,0.00,,,-99.99,0.000000,,2013-08-05 04:43:00,
2013-08-05 00:52:00,62.0,55.0,29.91,West,281,1.0,2.0,78,0.00,,,-99.99,0.000000,,2013-08-05 04:52:00,
2013-08-05 01:02:00,62.0,55.0,29.91,West,281,1.0,2.0,78,0.00,,,-99.99,0.000000,,2013-08-05 05:02:00,
2013-08-05 01:12:00,62.0,55.0,29.91,West,281,1.0,2.0,78,0.00,,,-99.99,0.000000,,2013-08-05 05:12:00,
2013-08-05 01:22:00,61.0,55.0,29.91,West,281,1.0,3.0,80,0.00,,,-99.99,0.000000,,2013-08-05 05:22:00,
2013-08-05 01:32:00,61.0,55.0,29.91,West,267,1.0,2.0,81,0.00,,,-99.99,0.000000,,2013-08-05 05:32:00,
2013-08-05 01:43:00,61.0,55.0,29.91,West,264,1.0,2.0,81,0.00,,,-99.99,0.000000,,2013-08-05 05:43:00,
2013-08-05 01:53:00,61.0,55.0,29.91,West,264,1.0,2.0,81,0.00,,,-99.99,0.000000,,2013-08-05 05:53:00,
2013-08-05 02:02:00,61.0,55.0,29.91,NW,309,1.0,3.0,81,0.00,,,-99.99,0.000000,,2013-08-05 06:02:00,
2013-08-05 02:12:00,61.0,55.0,29.91,West,269,1.0,3.0,81,0.00,,,-99.99,0.000000,,2013-08-05 06:12:00,
2013-08-05 02:22:00,61.0,55.0,29.91,WNW,283,1.0,2.0,82,0.00,,,-99.99,0.000000,,2013-08-05 06:22:00,
2013-08-05 02:32:00,61.0,55.0,29.91,WNW,283,1.0,2.0,82,0.00,,,-99.99,0.000000,,2013-08-05 06:32:00,
2013-08-05 02:43:00,60.0,55.0,29.91,NNW,345,0.0,1.0,83,0.00,,,-99.99,0.000000,,2013-08-05 06:43:00,
2013-08-05 02:52:00,60.0,55.0,29.91,SE,131,0.0,1.0,84,0.00,,,-99.99,0.000000,,2013-08-05 06:52:00,
2013-08-05 03:02:00,59.0,54.0,29.92,ESE,118,0.0,1.0,84,0.00,,,-99.99,0.000000,,2013-08-05 07:02:00,
2013-08-05 03:12:00,59.0,55.0,29.93,SW,222,0.0,0.0,86,0.00,,,-99.99,0.000000,,2013-08-05 07:12:00,
2013-08-05 03:32:00,58.0,54.0,29.93,SW,228,0.0,0.0,88,0.00,,,-99.99,0.000000,,2013-08-05 07:32:00,
2013-08-05 03:43:00,57.0,54.0,29.93,WSW,255,0.0,0.0,89,0.00,,,-99.99,0.000000,,2013-08-05 07:43:00,
2013-08-05 03:53:00,57.0,54.0,29.93,WSW,255,0.0,0.0,89,0.00,,,-99.99,0.000000,,2013-08-05 07:53:00,
2013-08-05 04:02:00,57.0,54.0,29.93,WSW,255,0.0,0.0,89,0.00,,,-99.99,0.000000,,2013-08-05 08:02:00,
2013-08-05 04:12:00,57.0,54.0,29.93,WSW,255,0.0,0.0,91,0.00,,,-99.99,0.000000,,2013-08-05 08:12:00,
2013-08-05 04:22:00,57.0,54.0,29.93,WSW,255,0.0,0.0,91,0.00,,,-99.99,0.000000,,2013-08-05 08:22:00,
2013-08-05 04:34:00,57.0,54.0,29.94,West,273,0.0,0.0,90,0.00,,,-99.99,0.000000,,2013-08-05 08:34:00,
2013-08-05 04:50:00,57.0,54.0,29.94,West,279,0.0,2.0,89,0.00,,,-99.99,0.000000,,2013-08-05 08:50:00,
2013-08-05 05:08:00,57.0,53.0,29.94,West,281,2.0,3.0,87,0.00,,,-99.99,0.000000,,2013-08-05 09:08:00,
2013-08-05 05:19:00,57.0,53.0,29.94,West,281,2.0,2.0,87,0.00,,,-99.99,0.000000,,2013-08-05 09:19:00,
2013-08-05 05:27:00,57.0,53.0,29.94,West,281,2.0,2.0,87,0.00,,,-99.99,0.000000,,2013-08-05 09:27:00,
2013-08-05 05:40:00,57.0,53.0,29.94,West,281,2.0,2.0,87,0.00,,,-99.99,0.000000,,2013-08-05 09:40:00,
2013-08-05 05:48:00,57.0,53.0,29.95,West,281,2.0,2.0,87,0.00,,,-99.99,0.000000,,2013-08-05 09:48:00,
2013-08-05 05:53:00,57.0,53.0,29.96,West,281,2.0,2.0,87,0.00,,,-99.99,0.000000,,2013-08-05 09:53:00,
2013-08-05 06:11:00,57.0,53.0,29.96,West,281,2.0,2.0,87,0.00,,,-99.99,0.000000,,2013-08-05 10:11:00,
2013-08-05 06:18:00,57.0,53.0,29.96,West,281,2.0,2.0,87,0.00,,,-99.99,0.000000,,2013-08-05 10:18:00,
2013-08-05 06:28:00,57.0,53.0,29.96,West,281,2.0,2.0,87,0.00,,,-99.99,0.000000,,2013-08-05 10:28:00,
2013-08-05 06:34:00,57.0,53.0,29.96,West,281,2.0,2.0,87,0.00,,,-99.99,0.000000,,2013-08-05 10:34:00,
2013-08-05 06:48:00,57.0,53.0,29.96,West,281,2.0,2.0,87,0.00,,,-99.99,0.000000,,2013-08-05 10:48:00,
2013-08-05 06:53:00,57.0,53.0,29.96,West,281,2.0,2.0,87,0.00,,,-99.99,0.000000,,2013-08-05 10:53:00,
2013-08-05 07:10:00,57.0,53.0,29.98,West,281,2.0,2.0,87,0.00,,,-99.99,0.000000,,2013-08-05 11:10:00,
2013-08-05 07:30:00,58.0,55.0,29.98,West,281,2.0,2.0,91,0.00,,,-99.99,0.000000,,2013-08-05 11:30:00,
2013-08-05 07:38:00,58.0,55.0,29.98,NW,307,1.0,3.0,90,0.00,,,-99.99,0.000000,,2013-08-05 11:38:00,
2013-08-05 07:50:00,59.0,55.0,29.99,NW,305,1.0,3.0,88,0.00,,,-99.99,0.000000,,2013-08-05 11:50:00,
2013-08-05 07:58:00,60.0,56.0,29.99,West,270,1.0,2.0,88,0.00,,,-99.99,0.000000,,2013-08-05 11:58:00,
2013-08-05 08:17:00,60.0,56.0,29.99,West,270,1.0,2.0,88,0.00,,,-99.99,0.000000,,2013-08-05 12:17:00,
2013-08-05 08:28:00,60.0,56.0,30.00,NW,305,1.0,4.0,87,0.00,,,-99.99,0.000000,,2013-08-05 12:28:00,
2013-08-05 08:33:00,60.0,56.0,30.00,NW,305,1.0,4.0,87,0.00,,,-99.99,0.000000,,2013-08-05 12:33:00,
2013-08-05 09:02:00,62.0,56.0,30.00,WNW,284,2.0,7.0,82,0.00,,,-99.99,0.000000,,2013-08-05 13:02:00,
2013-08-05 09:14:00,63.0,57.0,30.01,ENE,68,1.0,10.0,81,0.00,,,-99.99,0.000000,,2013-08-05 13:14:00,
2013-08-05 09:28:00,63.0,57.0,30.01,ENE,68,1.0,10.0,81,0.00,,,-99.99,0.000000,,2013-08-05 13:28:00,
2013-08-05 09:39:00,63.0,55.0,30.00,WNW,302,2.0,5.0,76,0.00,,,-99.99,0.000000,,2013-08-05 13:39:00,
2013-08-05 09:44:00,63.0,55.0,30.00,WNW,302,2.0,5.0,76,0.00,,,-99.99,0.000000,,2013-08-05 13:44:00,
2013-08-05 09:54:00,64.0,56.0,30.00,WNW,297,2.0,5.0,74,0.00,,,-99.99,0.000000,,2013-08-05 13:54:00,
2013-08-05 10:06:00,64.0,55.0,30.00,NW,310,2.0,6.0,72,0.00,,,-99.99,0.000000,,2013-08-05 14:06:00,
2013-08-05 10:17:00,64.0,54.0,30.00,NNE,20,2.0,6.0,70,0.00,,,-99.99,0.000000,,2013-08-05 14:17:00,
2013-08-05 10:40:00,65.0,53.0,29.99,WNW,284,2.0,9.0,66,0.00,,,-99.99,0.000000,,2013-08-05 14:40:00,
2013-08-05 10:48:00,65.0,50.0,30.00,North,1,2.0,5.0,58,0.00,,,-99.99,0.000000,,2013-08-05 14:48:00,
2013-08-05 10:53:00,65.0,50.0,30.00,North,1,2.0,5.0,58,0.00,,,-99.99,0.000000,,2013-08-05 14:53:00,
2013-08-05 11:08:00,65.0,50.0,30.00,North,1,2.0,5.0,58,0.00,,,-99.99,0.000000,,2013-08-05 15:08:00,
2013-08-05 11:25:00,66.0,49.0,30.00,WNW,297,2.0,4.0,55,0.00,,,-99.99,0.000000,,2013-08-05 15:25:00,
2013-08-05 11:39:00,67.0,51.0,29.99,NW,318,1.0,6.0,57,0.00,,,-99.99,0.000000,,2013-08-05 15:39:00,
2013-08-05 11:49:00,67.0,51.0,29.99,NW,318,1.0,6.0,57,0.00,,,-99.99,0.000000,,2013-08-05 15:49:00,
2013-08-05 12:33:00,70.0,50.0,29.99,NNE,14,2.0,5.0,49,0.00,,,-99.99,0.000000,,2013-08-05 16:33:00,
2013-08-05 12:45:00,70.0,50.0,29.99,NNE,20,2.0,9.0,49,0.00,,,-99.99,0.000000,,2013-08-05 16:45:00,
2013-08-05 13:07:00,71.0,50.0,29.99,NNW,338,2.0,6.0,47,0.00,,,-99.99,0.000000,,2013-08-05 17:07:00,
2013-08-05 13:16:00,71.0,51.0,29.99,WSW,252,2.0,9.0,49,0.00,,,-99.99,0.000000,,2013-08-05 17:16:00,
2013-08-05 13:22:00,71.0,49.0,29.98,NW,315,2.0,9.0,46,0.00,,,-99.99,0.000000,,2013-08-05 17:22:00,
2013-08-05 13:38:00,73.0,53.0,29.98,West,269,1.0,4.0,49,0.00,,,-99.99,0.000000,,2013-08-05 17:38:00,
2013-08-05 13:57:00,72.0,49.0,29.98,NE,46,2.0,5.0,44,0.00,,,-99.99,0.000000,,2013-08-05 17:57:00,
2013-08-05 14:08:00,73.0,50.0,29.98,NNW,335,2.0,7.0,44,0.00,,,-99.99,0.000000,,2013-08-05 18:08:00,
2013-08-05 14:13:00,73.0,50.0,29.98,NNW,335,2.0,7.0,44,0.00,,,-99.99,0.000000,,2013-08-05 18:13:00,
2013-08-05 14:38:00,74.0,51.0,29.98,East,82,2.0,8.0,44,0.00,,,-99.99,0.000000,,2013-08-05 18:38:00,
2013-08-05 14:44:00,74.0,51.0,29.95,West,281,2.0,5.0,44,0.00,,,-99.99,0.000000,,2013-08-05 18:44:00,
2013-08-05 14:54:00,74.0,51.0,29.96,South,174,2.0,5.0,44,0.00,,,-99.99,0.000000,,2013-08-05 18:54:00,
2013-08-05 15:05:00,74.0,51.0,29.96,South,174,2.0,5.0,44,0.00,,,-99.99,0.000000,,2013-08-05 19:05:00,
2013-08-05 15:15:00,74.0,51.0,29.96,South,174,2.0,5.0,44,0.00,,,-99.99,0.000000,,2013-08-05 19:15:00,
2013-08-05 15:54:00,74.0,51.0,29.95,WNW,302,2.0,7.0,44,0.00,,,-99.99,0.000000,,2013-08-05 19:54:00,
2013-08-05 16:15:00,74.0,52.0,29.96,WSW,249,2.0,4.0,46,0.00,,,-99.99,0.000000,,2013-08-05 20:15:00,
2013-08-05 16:39:00,75.0,51.0,29.96,West,266,1.0,6.0,43,0.00,,,-99.99,0.000000,,2013-08-05 20:39:00,
2013-08-05 16:48:00,75.0,52.0,29.95,NE,56,1.0,3.0,45,0.00,,,-99.99,0.000000,,2013-08-05 20:48:00,
2013-08-05 17:02:00,75.0,52.0,29.95,NE,56,1.0,3.0,45,0.00,,,-99.99,0.000000,,2013-08-05 21:02:00,
2013-08-05 17:26:00,73.0,53.0,29.96,West,274,1.0,3.0,50,0.00,,,-99.99,0.000000,,2013-08-05 21:26:00,
2013-08-05 17:34:00,73.0,53.0,29.96,West,274,1.0,3.0,50,0.00,,,-99.99,0.000000,,2013-08-05 21:34:00,
2013-08-05 17:48:00,73.0,52.0,29.96,WSW,243,1.0,4.0,48,0.00,,,-99.99,0.000000,,2013-08-05 21:48:00,
2013-08-05 17:53:00,73.0,52.0,29.96,WSW,243,1.0,4.0,48,0.00,,,-99.99,0.000000,,2013-08-05 21:53:00,
2013-08-05 18:05:00,73.0,52.0,29.96,WSW,243,1.0,4.0,48,0.00,,,-99.99,0.000000,,2013-08-05 22:05:00,
2013-08-05 18:16:00,72.0,56.0,29.96,WNW,286,0.0,2.0,57,0.00,,,-99.99,0.000000,,2013-08-05 22:16:00,
2013-08-05 18:28:00,71.0,54.0,29.96,NNE,15,1.0,2.0,55,0.00,,,-99.99,0.000000,,2013-08-05 22:28:00,
2013-08-05 18:38:00,71.0,54.0,29.97,NNW,332,0.0,0.0,56,0.00,,,-99.99,0.000000,,2013-08-05 22:38:00,
2013-08-05 18:44:00,71.0,55.0,29.97,NNW,332,0.0,0.0,57,0.00,,,-99.99,0.000000,,2013-08-05 22:44:00,
2013-08-05 18:53:00,71.0,55.0,29.97,NNW,332,0.0,0.0,57,0.00,,,-99.99,0.000000,,2013-08-05 22:53:00,
2013-08-05 19:07:00,71.0,55.0,29.97,NNW,332,0.0,0.0,57,0.00,,,-99.99,0.000000,,2013-08-05 23:07:00,
2013-08-05 19:18:00,69.0,57.0,29.98,WNW,287,0.0,0.0,65,0.00,,,-99.99,0.000000,,2013-08-05 23:18:00,
2013-08-05 19:46:00,68.0,57.0,29.99,North,9,0.0,0.0,69,0.00,,,-99.99,0.000000,,2013-08-05 23:46:00,
2013-08-05 19:57:00,67.0,56.0,30.00,NW,314,0.0,0.0,68,0.00,,,-99.99,0.000000,,2013-08-05 23:57:00,
2013-08-05 20:03:00,67.0,56.0,30.00,NW,315,0.0,0.0,67,0.00,,,-99.99,0.000000,,2013-08-06 00:03:00,
2013-08-05 20:15:00,66.0,56.0,30.01,WNW,285,0.0,0.0,71,0.00,,,-99.99,0.000000,,2013-08-06 00:15:00,
2013-08-05 20:24:00,66.0,56.0,30.01,WNW,285,0.0,0.0,70,0.00,,,-99.99,0.000000,,2013-08-06 00:24:00,
2013-08-05 20:37:00,66.0,56.0,30.01,WNW,285,0.0,0.0,70,0.00,,,-99.99,0.000000,,2013-08-06 00:37:00,
2013-08-05 20:45:00,65.0,55.0,30.01,WNW,285,0.0,0.0,71,0.00,,,-99.99,0.000000,,2013-08-06 00:45:00,
2013-08-05 20:57:00,65.0,54.0,30.02,West,274,0.0,0.0,67,0.00,,,-99.99,0.000000,,2013-08-06 00:57:00,
2013-08-05 21:10:00,64.0,54.0,30.02,West,272,0.0,0.0,71,0.00,,,-99.99,0.000000,,2013-08-06 01:10:00,
2013-08-05 21:28:00,63.0,53.0,30.03,West,280,0.0,0.0,71,0.00,,,-99.99,0.000000,,2013-08-06 01:28:00,
2013-08-05 21:40:00,64.0,55.0,30.02,West,272,0.0,0.0,72,0.00,,,-99.99,0.000000,,2013-08-06 01:40:00,
2013-08-05 21:50:00,63.0,53.0,30.02,West,272,0.0,0.0,69,0.00,,,-99.99,0.000000,,2013-08-06 01:50:00,
2013-08-05 22:10:00,62.0,53.0,30.03,West,272,0.0,0.0,73,0.00,,,-99.99,0.000000,,2013-08-06 02:10:00,
2013-08-05 22:27:00,62.0,53.0,30.02,West,272,0.0,0.0,72,0.00,,,-99.99,0.000000,,2013-08-06 02:27:00,
2013-08-05 22:33:00,62.0,53.0,30.02,West,272,0.0,0.0,72,0.00,,,-99.99,0.000000,,2013-08-06 02:33:00,
2013-08-05 22:52:00,62.0,53.0,30.03,West,273,0.0,0.0,72,0.00,,,-99.99,0.000000,,2013-08-06 02:52:00,
2013-08-05 23:02:00,62.0,53.0,30.03,West,273,0.0,0.0,72,0.00,,,-99.99,0.000000,,2013-08-06 03:02:00,
2013-08-05 23:18:00,61.0,53.0,30.03,West,272,0.0,0.0,75,0.00,,,-99.99,0.000000,,2013-08-06 03:18:00,
2013-08-05 23:26:00,61.0,54.0,30.03,West,273,0.0,0.0,77,0.00,,,-99.99,0.000000,,2013-08-06 03:26:00,
2013-08-05 23:35:00,61.0,54.0,30.03,West,273,0.0,0.0,77,0.00,,,-99.99,0.000000,,2013-08-06 03:35:00,
2013-08-05 23:45:00,59.0,53.0,30.03,West,273,0.0,0.0,81,0.00,,,-99.99,0.000000,,2013-08-06 03:45:00,
2013-08-05 23:52:00,59.0,53.0,30.03,West,273,0.0,0.0,81,0.00,,,-99.99,0.000000,,2013-08-06 03:52:00,